CPA413 RKSI-VHHH
Flight info
| Callsign | CPA413 |
|---|---|
| Flight time | N/A |
| Altitude | 38000 |
| Route | BOPTA2Y BOPTA Z51 BEDES Y711 MUGUS Y742 SALMI Q11 DRAKE A1 ELATO V522 ABBEY |
| Aircraft | A359/H-SDE2E3GHIJ3J4J5LM1ORWXY/LB1D1 |
Departure
| Time | 2026-05-04 01:01 |
|---|---|
| Airport | Incheon International Airport (RKSI) |
Arrival
| Time | N/A |
|---|---|
| Airport | Hong Kong International Airport (VHHH) |
| Time | Latitude | Longitude | Altitude | Speed | Heading |
|---|---|---|---|---|---|
| 2026-05-04 00:29 | 37.45736 | 126.44602 | 39 ft | 0 kts | 144° |
| 2026-05-04 00:47 | 37.45743 | 126.44596 | 38 ft | 4 kts | 144° |
| 2026-05-04 00:48 | 37.45764 | 126.44576 | 36 ft | 4 kts | 144° |
| 2026-05-04 00:48 | 37.45785 | 126.44558 | 35 ft | 3 kts | 145° |
| 2026-05-04 00:48 | 37.45806 | 126.44547 | 37 ft | 4 kts | 198° |
| 2026-05-04 00:48 | 37.45823 | 126.44565 | 36 ft | 4 kts | 237° |
| 2026-05-04 00:49 | 37.45828 | 126.44575 | 36 ft | 4 kts | 234° |
| 2026-05-04 00:49 | 37.45825 | 126.44569 | 36 ft | 0 kts | 234° |
| 2026-05-04 00:52 | 37.45824 | 126.44568 | 36 ft | 3 kts | 234° |
| 2026-05-04 00:52 | 37.45795 | 126.44516 | 38 ft | 9 kts | 234° |
| 2026-05-04 00:52 | 37.45754 | 126.44442 | 39 ft | 12 kts | 234° |
| 2026-05-04 00:52 | 37.45703 | 126.44351 | 39 ft | 14 kts | 235° |
| 2026-05-04 00:53 | 37.45644 | 126.44249 | 39 ft | 15 kts | 234° |
| 2026-05-04 00:53 | 37.45580 | 126.44135 | 39 ft | 17 kts | 235° |
| 2026-05-04 00:53 | 37.45508 | 126.44007 | 39 ft | 19 kts | 234° |
| 2026-05-04 00:53 | 37.45428 | 126.43869 | 39 ft | 20 kts | 234° |
| 2026-05-04 00:54 | 37.45347 | 126.43751 | 39 ft | 14 kts | 208° |
| 2026-05-04 00:54 | 37.45255 | 126.43781 | 39 ft | 15 kts | 146° |
| 2026-05-04 00:54 | 37.45163 | 126.43863 | 39 ft | 17 kts | 144° |
| 2026-05-04 00:54 | 37.45095 | 126.43923 | 39 ft | 19 kts | 144° |
| 2026-05-04 00:55 | 37.44940 | 126.44061 | 39 ft | 22 kts | 144° |
| 2026-05-04 00:55 | 37.44854 | 126.44138 | 39 ft | 24 kts | 144° |
| 2026-05-04 00:55 | 37.44714 | 126.44263 | 39 ft | 26 kts | 144° |
| 2026-05-04 00:55 | 37.44584 | 126.44379 | 39 ft | 14 kts | 144° |
| 2026-05-04 00:56 | 37.44512 | 126.44412 | 39 ft | 12 kts | 187° |
| 2026-05-04 00:56 | 37.44451 | 126.44346 | 39 ft | 10 kts | 234° |
| 2026-05-04 00:56 | 37.44448 | 126.44341 | 39 ft | 0 kts | 234° |
| 2026-05-04 00:59 | 37.44436 | 126.44319 | 39 ft | 12 kts | 234° |
| 2026-05-04 00:59 | 37.44387 | 126.44215 | 39 ft | 14 kts | 253° |
| 2026-05-04 00:59 | 37.44420 | 126.44107 | 39 ft | 14 kts | 319° |
| 2026-05-04 00:59 | 37.44454 | 126.44075 | 39 ft | 0 kts | 324° |
| 2026-05-04 01:00 | 37.44467 | 126.44063 | 39 ft | 17 kts | 324° |
| 2026-05-04 01:00 | 37.44794 | 126.43773 | 39 ft | 96 kts | 324° |
| 2026-05-04 01:00 | 37.45530 | 126.43118 | 40 ft | 160 kts | 325° |
| 2026-05-04 01:00 | 37.46527 | 126.42225 | 535 ft | 179 kts | 323° |
| 2026-05-04 01:01 | 37.47503 | 126.41263 | 1506 ft | 179 kts | 320° |
| 2026-05-04 01:01 | 37.48393 | 126.40097 | 2158 ft | 190 kts | 311° |
| 2026-05-04 01:01 | 37.49238 | 126.38753 | 2831 ft | 201 kts | 309° |
| 2026-05-04 01:01 | 37.50067 | 126.37294 | 3567 ft | 208 kts | 301° |
| 2026-05-04 01:02 | 37.50472 | 126.35519 | 4261 ft | 223 kts | 279° |
| 2026-05-04 01:02 | 37.50537 | 126.33499 | 4873 ft | 237 kts | 275° |
| 2026-05-04 01:02 | 37.50560 | 126.31391 | 5642 ft | 243 kts | 275° |
| 2026-05-04 01:02 | 37.50590 | 126.29278 | 6497 ft | 246 kts | 276° |
| 2026-05-04 01:03 | 37.50631 | 126.27084 | 7388 ft | 249 kts | 276° |
| 2026-05-04 01:03 | 37.50676 | 126.24923 | 8290 ft | 252 kts | 276° |
| 2026-05-04 01:03 | 37.50719 | 126.22693 | 9153 ft | 258 kts | 275° |
| 2026-05-04 01:03 | 37.50480 | 126.20415 | 10044 ft | 269 kts | 258° |
| 2026-05-04 01:04 | 37.49557 | 126.18266 | 10613 ft | 297 kts | 235° |
| 2026-05-04 01:04 | 37.47790 | 126.16668 | 10972 ft | 332 kts | 209° |
| 2026-05-04 01:04 | 37.45556 | 126.15601 | 11355 ft | 356 kts | 202° |
| 2026-05-04 01:04 | 37.43053 | 126.14908 | 11799 ft | 377 kts | 191° |
| 2026-05-04 01:05 | 37.40385 | 126.14855 | 12448 ft | 392 kts | 175° |
| 2026-05-04 01:05 | 37.37757 | 126.15869 | 13148 ft | 403 kts | 155° |
| 2026-05-04 01:05 | 37.35252 | 126.17517 | 13845 ft | 410 kts | 151° |
| 2026-05-04 01:05 | 37.32744 | 126.19295 | 14478 ft | 417 kts | 150° |
| 2026-05-04 01:06 | 37.30201 | 126.21118 | 15092 ft | 424 kts | 150° |
| 2026-05-04 01:06 | 37.27647 | 126.22954 | 15709 ft | 430 kts | 150° |
| 2026-05-04 01:06 | 37.25032 | 126.24835 | 16338 ft | 437 kts | 150° |
| 2026-05-04 01:06 | 37.22376 | 126.26745 | 16982 ft | 443 kts | 150° |
| 2026-05-04 01:07 | 37.19680 | 126.28681 | 17618 ft | 450 kts | 150° |
| 2026-05-04 01:07 | 37.16908 | 126.30671 | 18264 ft | 456 kts | 150° |
| 2026-05-04 01:07 | 37.14139 | 126.32657 | 18860 ft | 462 kts | 150° |
| 2026-05-04 01:07 | 37.11366 | 126.34646 | 19472 ft | 467 kts | 150° |
| 2026-05-04 01:08 | 37.08531 | 126.36676 | 20096 ft | 472 kts | 150° |
| 2026-05-04 01:08 | 37.05673 | 126.38722 | 20730 ft | 477 kts | 150° |
| 2026-05-04 01:08 | 37.02770 | 126.40797 | 21333 ft | 482 kts | 150° |
| 2026-05-04 01:08 | 36.99843 | 126.42888 | 21937 ft | 487 kts | 150° |
| 2026-05-04 01:09 | 36.96883 | 126.45001 | 22555 ft | 492 kts | 150° |
| 2026-05-04 01:09 | 36.93899 | 126.47129 | 23157 ft | 497 kts | 150° |
| 2026-05-04 01:09 | 36.90881 | 126.49280 | 23717 ft | 502 kts | 150° |
| 2026-05-04 01:09 | 36.87831 | 126.51450 | 24282 ft | 505 kts | 150° |
| 2026-05-04 01:10 | 36.84771 | 126.53627 | 24858 ft | 507 kts | 151° |
| 2026-05-04 01:10 | 36.81691 | 126.55815 | 25429 ft | 510 kts | 152° |
| 2026-05-04 01:10 | 36.78602 | 126.58007 | 25998 ft | 513 kts | 152° |
| 2026-05-04 01:10 | 36.75481 | 126.60201 | 26574 ft | 515 kts | 153° |
| 2026-05-04 01:11 | 36.72255 | 126.61987 | 27097 ft | 514 kts | 164° |
| 2026-05-04 01:11 | 36.68849 | 126.63348 | 27666 ft | 514 kts | 167° |
| 2026-05-04 01:11 | 36.65397 | 126.64546 | 28226 ft | 516 kts | 169° |
| 2026-05-04 01:11 | 36.61912 | 126.65676 | 28736 ft | 517 kts | 171° |
| 2026-05-04 01:12 | 36.58430 | 126.66786 | 29493 ft | 515 kts | 171° |
| 2026-05-04 01:12 | 36.54948 | 126.67902 | 30064 ft | 517 kts | 171° |
| 2026-05-04 01:12 | 36.51453 | 126.69037 | 30450 ft | 519 kts | 171° |
| 2026-05-04 01:12 | 36.47955 | 126.70187 | 30877 ft | 521 kts | 172° |
| 2026-05-04 01:13 | 36.44439 | 126.71354 | 31295 ft | 522 kts | 172° |
| 2026-05-04 01:13 | 36.40926 | 126.72527 | 31714 ft | 523 kts | 172° |
| 2026-05-04 01:13 | 36.37461 | 126.73690 | 32189 ft | 521 kts | 173° |
| 2026-05-04 01:13 | 36.33981 | 126.74870 | 32722 ft | 518 kts | 174° |
| 2026-05-04 01:14 | 36.30516 | 126.76054 | 33374 ft | 513 kts | 175° |
| 2026-05-04 01:14 | 36.27093 | 126.77220 | 33963 ft | 508 kts | 176° |
| 2026-05-04 01:14 | 36.23680 | 126.78371 | 34311 ft | 508 kts | 176° |
| 2026-05-04 01:14 | 36.20264 | 126.79514 | 34589 ft | 509 kts | 176° |
| 2026-05-04 01:15 | 36.16841 | 126.80452 | 34848 ft | 497 kts | 184° |
| 2026-05-04 01:15 | 36.13477 | 126.80811 | 35492 ft | 474 kts | 191° |
| 2026-05-04 01:15 | 36.10232 | 126.80708 | 35879 ft | 465 kts | 195° |
| 2026-05-04 01:15 | 36.06993 | 126.80443 | 36074 ft | 465 kts | 197° |
| 2026-05-04 01:16 | 36.03767 | 126.80097 | 36316 ft | 465 kts | 197° |
| 2026-05-04 01:16 | 36.00548 | 126.79720 | 36581 ft | 465 kts | 197° |
| 2026-05-04 01:16 | 35.97329 | 126.79339 | 36801 ft | 464 kts | 198° |
| 2026-05-04 01:16 | 35.94180 | 126.78979 | 37335 ft | 458 kts | 198° |
| 2026-05-04 01:17 | 35.91000 | 126.78627 | 37696 ft | 457 kts | 197° |
| 2026-05-04 01:17 | 35.87832 | 126.78283 | 37887 ft | 458 kts | 197° |
| 2026-05-04 01:17 | 35.84646 | 126.77934 | 37993 ft | 460 kts | 197° |
| 2026-05-04 01:18 | 35.78265 | 126.77233 | 37970 ft | 459 kts | 197° |
| 2026-05-04 01:18 | 35.71914 | 126.76547 | 38007 ft | 457 kts | 197° |
| 2026-05-04 01:19 | 35.65577 | 126.75863 | 38014 ft | 456 kts | 197° |
| 2026-05-04 01:19 | 35.59251 | 126.75180 | 37935 ft | 456 kts | 197° |
| 2026-05-04 01:20 | 35.52958 | 126.74504 | 38028 ft | 452 kts | 198° |
| 2026-05-04 01:20 | 35.46687 | 126.73838 | 38021 ft | 453 kts | 198° |
| 2026-05-04 01:21 | 35.40399 | 126.73165 | 38023 ft | 453 kts | 198° |
| 2026-05-04 01:21 | 35.34163 | 126.72497 | 38022 ft | 451 kts | 198° |
| 2026-05-04 01:22 | 35.27913 | 126.71830 | 38026 ft | 450 kts | 198° |
| 2026-05-04 01:22 | 35.21682 | 126.71162 | 38030 ft | 450 kts | 198° |
| 2026-05-04 01:23 | 35.15454 | 126.70499 | 38025 ft | 446 kts | 198° |
| 2026-05-04 01:23 | 35.09291 | 126.69855 | 38024 ft | 443 kts | 198° |
| 2026-05-04 01:24 | 35.03151 | 126.69199 | 38033 ft | 443 kts | 198° |
| 2026-05-04 01:24 | 34.97046 | 126.68544 | 38025 ft | 443 kts | 198° |
| 2026-05-04 01:25 | 34.90907 | 126.67890 | 38039 ft | 443 kts | 198° |
| 2026-05-04 01:25 | 34.84763 | 126.67240 | 38037 ft | 443 kts | 198° |
| 2026-05-04 01:26 | 34.78618 | 126.66592 | 38026 ft | 442 kts | 198° |
| 2026-05-04 01:26 | 34.72501 | 126.65959 | 38037 ft | 439 kts | 198° |
| 2026-05-04 01:27 | 34.66412 | 126.65313 | 38029 ft | 438 kts | 199° |
| 2026-05-04 01:27 | 34.60359 | 126.64661 | 37982 ft | 439 kts | 198° |
| 2026-05-04 01:28 | 34.54299 | 126.64026 | 38049 ft | 435 kts | 199° |
| 2026-05-04 01:28 | 34.48290 | 126.63404 | 38042 ft | 432 kts | 199° |
| 2026-05-04 01:29 | 34.42280 | 126.62768 | 38053 ft | 433 kts | 199° |
| 2026-05-04 01:29 | 34.36281 | 126.62140 | 38068 ft | 432 kts | 199° |
| 2026-05-04 01:30 | 34.30310 | 126.61528 | 38064 ft | 430 kts | 199° |
| 2026-05-04 01:30 | 34.24353 | 126.60912 | 38065 ft | 430 kts | 199° |
| 2026-05-04 01:31 | 34.18389 | 126.60295 | 38044 ft | 429 kts | 199° |
| 2026-05-04 01:31 | 34.12511 | 126.59681 | 38074 ft | 425 kts | 199° |
| 2026-05-04 01:32 | 34.06623 | 126.59064 | 38079 ft | 424 kts | 199° |
| 2026-05-04 01:32 | 34.00726 | 126.58446 | 38075 ft | 424 kts | 199° |
| 2026-05-04 01:33 | 33.94851 | 126.57837 | 38085 ft | 422 kts | 199° |
| 2026-05-04 01:33 | 33.89003 | 126.57233 | 38085 ft | 421 kts | 199° |
| 2026-05-04 01:34 | 33.83315 | 126.56212 | 38092 ft | 404 kts | 208° |
| 2026-05-04 01:34 | 33.78025 | 126.54142 | 38079 ft | 396 kts | 211° |
| 2026-05-04 01:35 | 33.72882 | 126.51901 | 38101 ft | 394 kts | 212° |
| 2026-05-04 01:35 | 33.67732 | 126.49632 | 38120 ft | 395 kts | 212° |
| 2026-05-04 01:36 | 33.62556 | 126.47373 | 38101 ft | 396 kts | 212° |
| 2026-05-04 01:36 | 33.57367 | 126.45128 | 38102 ft | 396 kts | 211° |
| 2026-05-04 01:37 | 33.52178 | 126.42892 | 38101 ft | 396 kts | 211° |
| 2026-05-04 01:37 | 33.46982 | 126.40653 | 38102 ft | 396 kts | 211° |
| 2026-05-04 01:38 | 33.41786 | 126.38420 | 38071 ft | 396 kts | 211° |
| 2026-05-04 01:38 | 33.36584 | 126.36186 | 38106 ft | 397 kts | 211° |
| 2026-05-04 01:39 | 33.31422 | 126.33967 | 38112 ft | 397 kts | 211° |
| 2026-05-04 01:39 | 33.26219 | 126.31732 | 38114 ft | 397 kts | 211° |
| 2026-05-04 01:40 | 33.21896 | 126.29877 | 38099 ft | 397 kts | 211° |
| 2026-05-04 01:40 | 33.16685 | 126.27646 | 38110 ft | 397 kts | 211° |
| 2026-05-04 01:41 | 33.11480 | 126.25424 | 38114 ft | 397 kts | 211° |
| 2026-05-04 01:41 | 33.06267 | 126.23199 | 38108 ft | 398 kts | 211° |
| 2026-05-04 01:42 | 33.01038 | 126.20969 | 38107 ft | 399 kts | 211° |
| 2026-05-04 01:42 | 32.95806 | 126.18733 | 38108 ft | 399 kts | 211° |
| 2026-05-04 01:43 | 32.90581 | 126.16487 | 38118 ft | 399 kts | 211° |
| 2026-05-04 01:43 | 32.85390 | 126.14258 | 38080 ft | 399 kts | 211° |
| 2026-05-04 01:44 | 32.80167 | 126.12020 | 38117 ft | 398 kts | 211° |
| 2026-05-04 01:44 | 32.74949 | 126.09789 | 38115 ft | 398 kts | 211° |
| 2026-05-04 01:45 | 32.69732 | 126.07560 | 38122 ft | 398 kts | 211° |
| 2026-05-04 01:45 | 32.61892 | 126.04217 | 38114 ft | 398 kts | 211° |
| 2026-05-04 01:46 | 32.56701 | 126.02007 | 38123 ft | 399 kts | 211° |
| 2026-05-04 01:46 | 32.51473 | 125.99784 | 38126 ft | 399 kts | 211° |
| 2026-05-04 01:47 | 32.46246 | 125.97569 | 38106 ft | 399 kts | 211° |
| 2026-05-04 01:47 | 32.41041 | 125.95365 | 38125 ft | 399 kts | 211° |
| 2026-05-04 01:48 | 32.35804 | 125.93144 | 38131 ft | 399 kts | 211° |
| 2026-05-04 01:48 | 32.30572 | 125.90931 | 38131 ft | 400 kts | 211° |
| 2026-05-04 01:49 | 32.25327 | 125.88716 | 38124 ft | 400 kts | 211° |
| 2026-05-04 01:49 | 32.20084 | 125.86505 | 38130 ft | 400 kts | 211° |
| 2026-05-04 01:50 | 32.14832 | 125.84294 | 38134 ft | 400 kts | 211° |
| 2026-05-04 01:50 | 32.09616 | 125.82101 | 38135 ft | 400 kts | 211° |
| 2026-05-04 01:51 | 32.04362 | 125.79894 | 38135 ft | 400 kts | 211° |
| 2026-05-04 01:51 | 31.99109 | 125.77691 | 38138 ft | 400 kts | 211° |
| 2026-05-04 01:52 | 31.93868 | 125.75486 | 38138 ft | 400 kts | 211° |
| 2026-05-04 01:52 | 31.88611 | 125.73274 | 38112 ft | 401 kts | 210° |
| 2026-05-04 01:53 | 31.83385 | 125.71079 | 38141 ft | 401 kts | 210° |
| 2026-05-04 01:53 | 31.78119 | 125.68872 | 38142 ft | 401 kts | 210° |
| 2026-05-04 01:54 | 31.72859 | 125.66670 | 38139 ft | 401 kts | 210° |
| 2026-05-04 01:54 | 31.67597 | 125.64475 | 38133 ft | 401 kts | 210° |
| 2026-05-04 01:55 | 31.62334 | 125.62271 | 38146 ft | 400 kts | 210° |
| 2026-05-04 01:55 | 31.57089 | 125.60076 | 38144 ft | 400 kts | 210° |
| 2026-05-04 01:56 | 31.51871 | 125.57899 | 38144 ft | 400 kts | 210° |
| 2026-05-04 01:56 | 31.46624 | 125.55704 | 38137 ft | 401 kts | 210° |
| 2026-05-04 01:57 | 31.41373 | 125.53499 | 38146 ft | 401 kts | 210° |
| 2026-05-04 01:57 | 31.36126 | 125.51302 | 38150 ft | 401 kts | 210° |
| 2026-05-04 01:58 | 31.30874 | 125.49109 | 38155 ft | 401 kts | 210° |
| 2026-05-04 01:58 | 31.25605 | 125.46910 | 38151 ft | 402 kts | 210° |
| 2026-05-04 01:59 | 31.20339 | 125.44716 | 38152 ft | 402 kts | 210° |
| 2026-05-04 01:59 | 31.15062 | 125.42522 | 38149 ft | 402 kts | 210° |
| 2026-05-04 02:00 | 31.09780 | 125.40327 | 38149 ft | 402 kts | 210° |
| 2026-05-04 02:00 | 31.04507 | 125.38139 | 38154 ft | 402 kts | 210° |
| 2026-05-04 02:01 | 30.99267 | 125.35966 | 38150 ft | 402 kts | 210° |
| 2026-05-04 02:01 | 30.93993 | 125.33781 | 38153 ft | 402 kts | 210° |
| 2026-05-04 02:02 | 30.88714 | 125.31598 | 38122 ft | 402 kts | 210° |
| 2026-05-04 02:02 | 30.83414 | 125.29406 | 38152 ft | 404 kts | 210° |
| 2026-05-04 02:03 | 30.78110 | 125.27218 | 38152 ft | 404 kts | 210° |
| 2026-05-04 02:03 | 30.72808 | 125.25034 | 38151 ft | 404 kts | 210° |
| 2026-05-04 02:04 | 30.67506 | 125.22852 | 38131 ft | 404 kts | 210° |
| 2026-05-04 02:04 | 30.62219 | 125.20676 | 38151 ft | 406 kts | 210° |
| 2026-05-04 02:05 | 30.56889 | 125.18487 | 38151 ft | 406 kts | 210° |
| 2026-05-04 02:05 | 30.51559 | 125.16301 | 38151 ft | 406 kts | 210° |
| 2026-05-04 02:06 | 30.46226 | 125.14120 | 38146 ft | 407 kts | 210° |
| 2026-05-04 02:06 | 30.40871 | 125.11928 | 38160 ft | 409 kts | 210° |
| 2026-05-04 02:07 | 30.35501 | 125.09727 | 38156 ft | 409 kts | 210° |
| 2026-05-04 02:07 | 30.30171 | 125.07548 | 38156 ft | 409 kts | 210° |
| 2026-05-04 02:08 | 30.24806 | 125.05357 | 38152 ft | 410 kts | 210° |
| 2026-05-04 02:08 | 30.19402 | 125.03152 | 38157 ft | 412 kts | 210° |
| 2026-05-04 02:09 | 30.13991 | 125.00951 | 38153 ft | 412 kts | 210° |
| 2026-05-04 02:09 | 30.08589 | 124.98756 | 38172 ft | 412 kts | 210° |
| 2026-05-04 02:10 | 30.03188 | 124.96563 | 38151 ft | 412 kts | 210° |
| 2026-05-04 02:10 | 29.97767 | 124.94360 | 38151 ft | 412 kts | 210° |
| 2026-05-04 02:11 | 29.92395 | 124.92066 | 38154 ft | 411 kts | 211° |
| 2026-05-04 02:11 | 29.87041 | 124.89745 | 38154 ft | 411 kts | 211° |
| 2026-05-04 02:12 | 29.81699 | 124.87448 | 38154 ft | 413 kts | 210° |
| 2026-05-04 02:12 | 29.76293 | 124.85143 | 38154 ft | 414 kts | 210° |
| 2026-05-04 02:13 | 29.70896 | 124.82850 | 38157 ft | 414 kts | 210° |
| 2026-05-04 02:13 | 29.65496 | 124.80558 | 38157 ft | 414 kts | 210° |
| 2026-05-04 02:14 | 29.60116 | 124.78273 | 38156 ft | 414 kts | 210° |
| 2026-05-04 02:14 | 29.54699 | 124.75977 | 38161 ft | 415 kts | 210° |
| 2026-05-04 02:15 | 29.49283 | 124.73684 | 38156 ft | 415 kts | 210° |
| 2026-05-04 02:15 | 29.43860 | 124.71390 | 38108 ft | 414 kts | 210° |
| 2026-05-04 02:16 | 29.38443 | 124.69100 | 38155 ft | 416 kts | 210° |
| 2026-05-04 02:16 | 29.33034 | 124.66817 | 38159 ft | 416 kts | 210° |
| 2026-05-04 02:17 | 29.27593 | 124.64525 | 38162 ft | 416 kts | 210° |
| 2026-05-04 02:17 | 29.22151 | 124.62235 | 38130 ft | 416 kts | 209° |
| 2026-05-04 02:18 | 29.16697 | 124.59939 | 38162 ft | 418 kts | 209° |
| 2026-05-04 02:18 | 29.11224 | 124.57641 | 38161 ft | 418 kts | 209° |
| 2026-05-04 02:19 | 29.05788 | 124.55361 | 38163 ft | 418 kts | 209° |
| 2026-05-04 02:19 | 29.00313 | 124.53066 | 38163 ft | 418 kts | 209° |
| 2026-05-04 02:20 | 28.94998 | 124.50489 | 38162 ft | 409 kts | 217° |
| 2026-05-04 02:20 | 28.90273 | 124.46999 | 38177 ft | 403 kts | 222° |
| 2026-05-04 02:21 | 28.85719 | 124.43343 | 38162 ft | 401 kts | 223° |
| 2026-05-04 02:21 | 28.81180 | 124.39659 | 38136 ft | 401 kts | 222° |
| 2026-05-04 02:22 | 28.76614 | 124.35974 | 38163 ft | 403 kts | 222° |
| 2026-05-04 02:22 | 28.72011 | 124.32283 | 38162 ft | 404 kts | 222° |
| 2026-05-04 02:23 | 28.67411 | 124.28605 | 38162 ft | 404 kts | 222° |
| 2026-05-04 02:23 | 28.62809 | 124.24928 | 38162 ft | 404 kts | 222° |
| 2026-05-04 02:24 | 28.58202 | 124.21247 | 38175 ft | 406 kts | 222° |
| 2026-05-04 02:24 | 28.53605 | 124.17580 | 38162 ft | 406 kts | 222° |
| 2026-05-04 02:25 | 28.48973 | 124.13891 | 38156 ft | 406 kts | 222° |
| 2026-05-04 02:25 | 28.44347 | 124.10209 | 38159 ft | 406 kts | 222° |
| 2026-05-04 02:26 | 28.39717 | 124.06527 | 38156 ft | 407 kts | 222° |
| 2026-05-04 02:26 | 28.35063 | 124.02829 | 38162 ft | 408 kts | 222° |
| 2026-05-04 02:27 | 28.30178 | 123.99451 | 38164 ft | 417 kts | 213° |
| 2026-05-04 02:27 | 28.25757 | 123.97195 | 38165 ft | 420 kts | 212° |
| 2026-05-04 02:28 | 28.20368 | 123.94618 | 38133 ft | 420 kts | 211° |
| 2026-05-04 02:28 | 28.14943 | 123.92053 | 38164 ft | 423 kts | 211° |
| 2026-05-04 02:29 | 28.09523 | 123.89474 | 38164 ft | 423 kts | 211° |
| 2026-05-04 02:29 | 28.04128 | 123.86900 | 38164 ft | 423 kts | 211° |
| 2026-05-04 02:30 | 27.98696 | 123.84308 | 38149 ft | 423 kts | 212° |
| 2026-05-04 02:30 | 27.93258 | 123.81713 | 38163 ft | 426 kts | 211° |
| 2026-05-04 02:31 | 27.87794 | 123.79111 | 38165 ft | 426 kts | 211° |
| 2026-05-04 02:31 | 27.82376 | 123.76536 | 38166 ft | 426 kts | 211° |
| 2026-05-04 02:32 | 27.76893 | 123.73932 | 38135 ft | 426 kts | 212° |
| 2026-05-04 02:32 | 27.71434 | 123.71339 | 38157 ft | 430 kts | 212° |
| 2026-05-04 02:33 | 27.65914 | 123.68722 | 38163 ft | 430 kts | 212° |
| 2026-05-04 02:33 | 27.60629 | 123.65730 | 38157 ft | 417 kts | 221° |
| 2026-05-04 02:34 | 27.55863 | 123.62038 | 38157 ft | 414 kts | 223° |
| 2026-05-04 02:34 | 27.51186 | 123.58227 | 38155 ft | 417 kts | 223° |
| 2026-05-04 02:35 | 27.46519 | 123.54411 | 38152 ft | 418 kts | 223° |
| 2026-05-04 02:35 | 27.41795 | 123.50577 | 38158 ft | 418 kts | 223° |
| 2026-05-04 02:36 | 27.37073 | 123.46761 | 38156 ft | 418 kts | 223° |
| 2026-05-04 02:36 | 27.32344 | 123.42945 | 38154 ft | 419 kts | 223° |
| 2026-05-04 02:37 | 27.27593 | 123.39113 | 38152 ft | 420 kts | 223° |
| 2026-05-04 02:37 | 27.22863 | 123.35303 | 38152 ft | 420 kts | 223° |
| 2026-05-04 02:38 | 27.18112 | 123.31481 | 38154 ft | 420 kts | 223° |
| 2026-05-04 02:38 | 27.13355 | 123.27657 | 38137 ft | 420 kts | 223° |
| 2026-05-04 02:39 | 27.08576 | 123.23818 | 38152 ft | 423 kts | 222° |
| 2026-05-04 02:39 | 27.03820 | 123.20003 | 38151 ft | 423 kts | 222° |
| 2026-05-04 02:40 | 26.99023 | 123.16161 | 38151 ft | 423 kts | 222° |
| 2026-05-04 02:40 | 26.94233 | 123.12328 | 38151 ft | 423 kts | 223° |
| 2026-05-04 02:41 | 26.89442 | 123.08497 | 38152 ft | 423 kts | 223° |
| 2026-05-04 02:41 | 26.84646 | 123.04666 | 38151 ft | 423 kts | 223° |
| 2026-05-04 02:42 | 26.79888 | 123.00869 | 38151 ft | 423 kts | 223° |
| 2026-05-04 02:42 | 26.75091 | 122.97051 | 38151 ft | 423 kts | 222° |
| 2026-05-04 02:43 | 26.70293 | 122.93242 | 38152 ft | 424 kts | 222° |
| 2026-05-04 02:43 | 26.65477 | 122.89422 | 38151 ft | 424 kts | 222° |
| 2026-05-04 02:44 | 26.60660 | 122.85608 | 38150 ft | 424 kts | 222° |
| 2026-05-04 02:44 | 26.55845 | 122.81799 | 38154 ft | 424 kts | 222° |
| 2026-05-04 02:45 | 26.51027 | 122.77984 | 38113 ft | 423 kts | 222° |
| 2026-05-04 02:45 | 26.46210 | 122.74162 | 38151 ft | 426 kts | 222° |
| 2026-05-04 02:46 | 26.41401 | 122.70354 | 38151 ft | 426 kts | 222° |
| 2026-05-04 02:46 | 26.36558 | 122.66526 | 38151 ft | 426 kts | 222° |
| 2026-05-04 02:47 | 26.31718 | 122.62705 | 38151 ft | 426 kts | 222° |
| 2026-05-04 02:47 | 26.26875 | 122.58884 | 38148 ft | 427 kts | 222° |
| 2026-05-04 02:48 | 26.22050 | 122.55079 | 38154 ft | 428 kts | 222° |
| 2026-05-04 02:48 | 26.17178 | 122.51245 | 38151 ft | 428 kts | 222° |
| 2026-05-04 02:49 | 26.12310 | 122.47432 | 38151 ft | 428 kts | 222° |
| 2026-05-04 02:49 | 26.07437 | 122.43607 | 38128 ft | 428 kts | 222° |
| 2026-05-04 02:50 | 26.02590 | 122.39803 | 38153 ft | 430 kts | 222° |
| 2026-05-04 02:50 | 25.97701 | 122.35975 | 38154 ft | 430 kts | 221° |
| 2026-05-04 02:51 | 25.92801 | 122.32145 | 38148 ft | 430 kts | 221° |
| 2026-05-04 02:51 | 25.87912 | 122.28328 | 38151 ft | 429 kts | 221° |
| 2026-05-04 02:52 | 25.83017 | 122.24508 | 38146 ft | 430 kts | 221° |
| 2026-05-04 02:52 | 25.78103 | 122.20676 | 38147 ft | 432 kts | 221° |
| 2026-05-04 02:53 | 25.73185 | 122.16848 | 38148 ft | 432 kts | 221° |
| 2026-05-04 02:53 | 25.68258 | 122.13017 | 38150 ft | 432 kts | 221° |
| 2026-05-04 02:54 | 25.63390 | 122.09198 | 38114 ft | 430 kts | 224° |
| 2026-05-04 02:54 | 25.59102 | 122.04661 | 38145 ft | 424 kts | 232° |
| 2026-05-04 02:55 | 25.53265 | 121.97285 | 38142 ft | 424 kts | 233° |
| 2026-05-04 02:56 | 25.49400 | 121.92336 | 38142 ft | 424 kts | 233° |
| 2026-05-04 02:56 | 25.45529 | 121.87407 | 38142 ft | 424 kts | 233° |
| 2026-05-04 02:57 | 25.41646 | 121.82483 | 38154 ft | 426 kts | 233° |
| 2026-05-04 02:57 | 25.37742 | 121.77540 | 38161 ft | 426 kts | 233° |
| 2026-05-04 02:58 | 25.33866 | 121.72639 | 38145 ft | 425 kts | 233° |
| 2026-05-04 02:58 | 25.29967 | 121.67714 | 38144 ft | 425 kts | 233° |
| 2026-05-04 02:59 | 25.26075 | 121.62802 | 38145 ft | 425 kts | 233° |
| 2026-05-04 02:59 | 25.22185 | 121.57885 | 38140 ft | 425 kts | 233° |
| 2026-05-04 03:00 | 25.18275 | 121.52969 | 38158 ft | 427 kts | 233° |
| 2026-05-04 03:00 | 25.14375 | 121.48015 | 38160 ft | 425 kts | 234° |
| 2026-05-04 03:01 | 25.10554 | 121.43025 | 38161 ft | 425 kts | 234° |
| 2026-05-04 03:01 | 25.06740 | 121.38048 | 38136 ft | 425 kts | 234° |
| 2026-05-04 03:02 | 25.02901 | 121.33064 | 38089 ft | 426 kts | 234° |
| 2026-05-04 03:02 | 24.99068 | 121.28105 | 38127 ft | 429 kts | 234° |
| 2026-05-04 03:03 | 24.95191 | 121.23100 | 38148 ft | 429 kts | 234° |
| 2026-05-04 03:03 | 24.91328 | 121.18118 | 38130 ft | 427 kts | 234° |
| 2026-05-04 03:04 | 24.87464 | 121.13142 | 38125 ft | 426 kts | 234° |
| 2026-05-04 03:04 | 24.83610 | 121.08180 | 38121 ft | 427 kts | 234° |
| 2026-05-04 03:05 | 24.79750 | 121.03223 | 38107 ft | 427 kts | 234° |
| 2026-05-04 03:05 | 24.75911 | 120.98279 | 38097 ft | 427 kts | 234° |
| 2026-05-04 03:06 | 24.72054 | 120.93318 | 38080 ft | 426 kts | 234° |
| 2026-05-04 03:06 | 24.68203 | 120.88375 | 38080 ft | 424 kts | 234° |
| 2026-05-04 03:07 | 24.64363 | 120.83451 | 38081 ft | 424 kts | 234° |
| 2026-05-04 03:07 | 24.60514 | 120.78521 | 38071 ft | 425 kts | 234° |
| 2026-05-04 03:08 | 24.56642 | 120.73566 | 38071 ft | 427 kts | 234° |
| 2026-05-04 03:08 | 24.52689 | 120.68727 | 38058 ft | 429 kts | 231° |
| 2026-05-04 03:09 | 24.48495 | 120.64037 | 38057 ft | 430 kts | 231° |
| 2026-05-04 03:09 | 24.44298 | 120.59355 | 38051 ft | 430 kts | 231° |
| 2026-05-04 03:10 | 24.40136 | 120.54647 | 38048 ft | 430 kts | 231° |
| 2026-05-04 03:10 | 24.35975 | 120.49906 | 38047 ft | 432 kts | 231° |
| 2026-05-04 03:11 | 24.31793 | 120.45144 | 38046 ft | 433 kts | 231° |
| 2026-05-04 03:11 | 24.28314 | 120.41191 | 38045 ft | 433 kts | 231° |
| 2026-05-04 03:12 | 24.23445 | 120.35665 | 38043 ft | 432 kts | 231° |
| 2026-05-04 03:12 | 24.19948 | 120.31700 | 38041 ft | 431 kts | 231° |
| 2026-05-04 03:13 | 24.15806 | 120.27006 | 38024 ft | 432 kts | 231° |
| 2026-05-04 03:13 | 24.11610 | 120.22255 | 38030 ft | 434 kts | 231° |
| 2026-05-04 03:14 | 24.07404 | 120.17500 | 38027 ft | 435 kts | 231° |
| 2026-05-04 03:14 | 24.03192 | 120.12743 | 38031 ft | 434 kts | 231° |
| 2026-05-04 03:15 | 23.98987 | 120.08001 | 38033 ft | 434 kts | 231° |
| 2026-05-04 03:15 | 23.94789 | 120.03270 | 38006 ft | 433 kts | 231° |
| 2026-05-04 03:16 | 23.90566 | 119.98512 | 38025 ft | 437 kts | 231° |
| 2026-05-04 03:16 | 23.86351 | 119.93771 | 38034 ft | 438 kts | 230° |
| 2026-05-04 03:17 | 23.82108 | 119.89005 | 38032 ft | 438 kts | 230° |
| 2026-05-04 03:17 | 23.77857 | 119.84235 | 38036 ft | 438 kts | 230° |
| 2026-05-04 03:18 | 23.73613 | 119.79477 | 38040 ft | 437 kts | 231° |
| 2026-05-04 03:18 | 23.69366 | 119.74717 | 38045 ft | 438 kts | 230° |
| 2026-05-04 03:19 | 23.65101 | 119.69944 | 38049 ft | 439 kts | 230° |
| 2026-05-04 03:19 | 23.60872 | 119.65177 | 38044 ft | 438 kts | 232° |
| 2026-05-04 03:20 | 23.57300 | 119.59866 | 38051 ft | 434 kts | 240° |
| 2026-05-04 03:20 | 23.54052 | 119.54329 | 38048 ft | 433 kts | 241° |
| 2026-05-04 03:21 | 23.50849 | 119.48757 | 38036 ft | 432 kts | 241° |
| 2026-05-04 03:21 | 23.47638 | 119.43191 | 38047 ft | 435 kts | 241° |
| 2026-05-04 03:22 | 23.44401 | 119.37611 | 38042 ft | 435 kts | 241° |
| 2026-05-04 03:22 | 23.41161 | 119.32042 | 38046 ft | 435 kts | 241° |
| 2026-05-04 03:23 | 23.37915 | 119.26469 | 38044 ft | 435 kts | 241° |
| 2026-05-04 03:23 | 23.34688 | 119.20933 | 38047 ft | 435 kts | 241° |
| 2026-05-04 03:24 | 23.31453 | 119.15389 | 38043 ft | 434 kts | 241° |
| 2026-05-04 03:24 | 23.28206 | 119.09829 | 38041 ft | 436 kts | 241° |
| 2026-05-04 03:25 | 23.24946 | 119.04253 | 38043 ft | 437 kts | 240° |
| 2026-05-04 03:25 | 23.21678 | 118.98672 | 38049 ft | 437 kts | 240° |
| 2026-05-04 03:26 | 23.18413 | 118.93101 | 38050 ft | 437 kts | 240° |
| 2026-05-04 03:26 | 23.15153 | 118.87545 | 38050 ft | 436 kts | 240° |
| 2026-05-04 03:27 | 23.11907 | 118.82019 | 38047 ft | 436 kts | 240° |
| 2026-05-04 03:27 | 23.08643 | 118.76467 | 38049 ft | 437 kts | 240° |
| 2026-05-04 03:28 | 23.05364 | 118.70894 | 38048 ft | 439 kts | 240° |
| 2026-05-04 03:28 | 23.02067 | 118.65300 | 38056 ft | 439 kts | 240° |
| 2026-05-04 03:29 | 22.98776 | 118.59722 | 38053 ft | 438 kts | 240° |
| 2026-05-04 03:29 | 22.95489 | 118.54156 | 38057 ft | 438 kts | 240° |
| 2026-05-04 03:30 | 22.92213 | 118.48625 | 38052 ft | 438 kts | 240° |
| 2026-05-04 03:30 | 22.88904 | 118.43073 | 38055 ft | 438 kts | 240° |
| 2026-05-04 03:31 | 22.85593 | 118.37522 | 38054 ft | 440 kts | 240° |
| 2026-05-04 03:31 | 22.82271 | 118.31954 | 38053 ft | 440 kts | 240° |
| 2026-05-04 03:32 | 22.78945 | 118.26383 | 38053 ft | 440 kts | 240° |
| 2026-05-04 03:32 | 22.75620 | 118.20818 | 38053 ft | 440 kts | 240° |
| 2026-05-04 03:33 | 22.72295 | 118.15260 | 38056 ft | 440 kts | 240° |
| 2026-05-04 03:33 | 22.68966 | 118.09701 | 38056 ft | 440 kts | 240° |
| 2026-05-04 03:34 | 22.65657 | 118.04182 | 38055 ft | 439 kts | 240° |
| 2026-05-04 03:34 | 22.62329 | 117.98637 | 38056 ft | 439 kts | 240° |
| 2026-05-04 03:35 | 22.58999 | 117.93094 | 38053 ft | 439 kts | 240° |
| 2026-05-04 03:35 | 22.55693 | 117.87531 | 38053 ft | 439 kts | 240° |
| 2026-05-04 03:36 | 22.52398 | 117.81967 | 38056 ft | 439 kts | 240° |
| 2026-05-04 03:36 | 22.49095 | 117.76409 | 38056 ft | 439 kts | 240° |
| 2026-05-04 03:37 | 22.45810 | 117.70894 | 38059 ft | 439 kts | 240° |
| 2026-05-04 03:37 | 22.42496 | 117.65338 | 38056 ft | 440 kts | 240° |
| 2026-05-04 03:38 | 22.39167 | 117.59763 | 38055 ft | 441 kts | 240° |
| 2026-05-04 03:38 | 22.35910 | 117.54151 | 38053 ft | 439 kts | 244° |
| 2026-05-04 03:39 | 22.33745 | 117.48029 | 38050 ft | 435 kts | 258° |
| 2026-05-04 03:39 | 22.33131 | 117.41545 | 38058 ft | 434 kts | 267° |
| 2026-05-04 03:40 | 22.33004 | 117.35017 | 38060 ft | 435 kts | 269° |
| 2026-05-04 03:40 | 22.32931 | 117.28536 | 38058 ft | 435 kts | 268° |
| 2026-05-04 03:41 | 22.32832 | 117.22007 | 38058 ft | 435 kts | 268° |
| 2026-05-04 03:41 | 22.32712 | 117.15477 | 38062 ft | 435 kts | 268° |
| 2026-05-04 03:42 | 22.32583 | 117.08940 | 38060 ft | 434 kts | 268° |
| 2026-05-04 03:42 | 22.32453 | 117.02420 | 38056 ft | 434 kts | 268° |
| 2026-05-04 03:43 | 22.32320 | 116.95898 | 38058 ft | 434 kts | 268° |
| 2026-05-04 03:43 | 22.32186 | 116.89381 | 38059 ft | 434 kts | 268° |
| 2026-05-04 03:44 | 22.32050 | 116.82904 | 38058 ft | 434 kts | 268° |
| 2026-05-04 03:44 | 22.31910 | 116.76382 | 38058 ft | 435 kts | 268° |
| 2026-05-04 03:45 | 22.31768 | 116.69842 | 38062 ft | 435 kts | 268° |
| 2026-05-04 03:45 | 22.31623 | 116.63297 | 38062 ft | 435 kts | 268° |
| 2026-05-04 03:46 | 22.31475 | 116.56761 | 38061 ft | 435 kts | 268° |
| 2026-05-04 03:46 | 22.31326 | 116.50272 | 38058 ft | 434 kts | 268° |
| 2026-05-04 03:47 | 22.31173 | 116.43759 | 38056 ft | 434 kts | 268° |
| 2026-05-04 03:47 | 22.31018 | 116.37240 | 38058 ft | 434 kts | 268° |
| 2026-05-04 03:48 | 22.30861 | 116.30733 | 38061 ft | 434 kts | 268° |
| 2026-05-04 03:48 | 22.30700 | 116.24215 | 38063 ft | 434 kts | 268° |
| 2026-05-04 03:49 | 22.30538 | 116.17709 | 38061 ft | 434 kts | 268° |
| 2026-05-04 03:49 | 22.30372 | 116.11179 | 38061 ft | 434 kts | 268° |
| 2026-05-04 03:50 | 22.30205 | 116.04715 | 38065 ft | 434 kts | 268° |
| 2026-05-04 03:50 | 22.30034 | 115.98196 | 38064 ft | 434 kts | 268° |
| 2026-05-04 03:51 | 22.29861 | 115.91680 | 38061 ft | 434 kts | 268° |
| 2026-05-04 03:51 | 22.29685 | 115.85165 | 38058 ft | 434 kts | 268° |
| 2026-05-04 03:52 | 22.29509 | 115.78648 | 38058 ft | 434 kts | 268° |
| 2026-05-04 03:52 | 22.29338 | 115.72160 | 38058 ft | 434 kts | 268° |
| 2026-05-04 03:53 | 22.29165 | 115.65649 | 38058 ft | 434 kts | 268° |
| 2026-05-04 03:53 | 22.28988 | 115.59120 | 38058 ft | 433 kts | 268° |
| 2026-05-04 03:54 | 22.28808 | 115.52621 | 38059 ft | 433 kts | 268° |
| 2026-05-04 03:54 | 22.28626 | 115.46115 | 38058 ft | 433 kts | 268° |
| 2026-05-04 03:55 | 22.28441 | 115.39620 | 38059 ft | 433 kts | 268° |
| 2026-05-04 03:55 | 22.28255 | 115.33147 | 38061 ft | 433 kts | 268° |
| 2026-05-04 03:56 | 22.28061 | 115.26642 | 38056 ft | 435 kts | 268° |
| 2026-05-04 03:56 | 22.27857 | 115.20101 | 38056 ft | 436 kts | 267° |
| 2026-05-04 03:57 | 22.27651 | 115.13551 | 38056 ft | 436 kts | 267° |
| 2026-05-04 03:57 | 22.27479 | 115.08113 | 38056 ft | 436 kts | 267° |
| 2026-05-04 03:58 | 22.27131 | 114.97231 | 38058 ft | 435 kts | 268° |
| 2026-05-04 03:58 | 22.26955 | 114.91812 | 38058 ft | 434 kts | 268° |
| 2026-05-04 03:59 | 22.26742 | 114.85295 | 38060 ft | 434 kts | 268° |
| 2026-05-04 03:59 | 22.26530 | 114.78781 | 38060 ft | 434 kts | 268° |
| 2026-05-04 04:00 | 22.26320 | 114.72262 | 38058 ft | 434 kts | 268° |
| 2026-05-04 04:00 | 22.26114 | 114.65748 | 38056 ft | 434 kts | 268° |
| 2026-05-04 04:01 | 22.25909 | 114.59281 | 38053 ft | 434 kts | 268° |
| 2026-05-04 04:01 | 22.25702 | 114.52769 | 38056 ft | 434 kts | 268° |
| 2026-05-04 04:02 | 22.25496 | 114.46249 | 38056 ft | 434 kts | 268° |
| 2026-05-04 04:02 | 22.25293 | 114.39776 | 38056 ft | 434 kts | 268° |
| 2026-05-04 04:03 | 22.25078 | 114.33276 | 38058 ft | 432 kts | 268° |
| 2026-05-04 04:03 | 22.24855 | 114.26829 | 38064 ft | 431 kts | 268° |
| 2026-05-04 04:04 | 22.24624 | 114.20359 | 38063 ft | 431 kts | 268° |
| 2026-05-04 04:04 | 22.24403 | 114.13892 | 38067 ft | 431 kts | 268° |
| 2026-05-04 04:05 | 22.24184 | 114.07417 | 38070 ft | 431 kts | 268° |
| 2026-05-04 04:05 | 22.23971 | 114.00961 | 38073 ft | 429 kts | 268° |
| 2026-05-04 04:06 | 22.23765 | 113.94536 | 38074 ft | 428 kts | 268° |
| 2026-05-04 04:06 | 22.23559 | 113.88109 | 38068 ft | 428 kts | 268° |
| 2026-05-04 04:07 | 22.23354 | 113.81691 | 38073 ft | 428 kts | 268° |
| 2026-05-04 04:07 | 22.23151 | 113.75262 | 38064 ft | 429 kts | 268° |
| 2026-05-04 04:08 | 22.22951 | 113.68799 | 38073 ft | 431 kts | 268° |
| 2026-05-04 04:08 | 22.22752 | 113.62381 | 38075 ft | 430 kts | 268° |
| 2026-05-04 04:09 | 22.22553 | 113.55907 | 38075 ft | 430 kts | 268° |
| 2026-05-04 04:09 | 22.22356 | 113.49454 | 38073 ft | 430 kts | 268° |
| 2026-05-04 04:10 | 22.22162 | 113.42999 | 38067 ft | 430 kts | 268° |
| 2026-05-04 04:10 | 22.21989 | 113.36552 | 38066 ft | 429 kts | 268° |
| 2026-05-04 04:11 | 22.21828 | 113.30144 | 38067 ft | 429 kts | 268° |
| 2026-05-04 04:11 | 22.21666 | 113.23715 | 38067 ft | 429 kts | 268° |
| 2026-05-04 04:12 | 22.21506 | 113.17288 | 38069 ft | 429 kts | 268° |
| 2026-05-04 04:12 | 22.21349 | 113.10843 | 38069 ft | 429 kts | 268° |
| 2026-05-04 04:13 | 22.21215 | 113.04415 | 38067 ft | 428 kts | 268° |
| 2026-05-04 04:13 | 22.21094 | 112.97984 | 38069 ft | 428 kts | 268° |
| 2026-05-04 04:14 | 22.20979 | 112.91595 | 38071 ft | 428 kts | 268° |
| 2026-05-04 04:14 | 22.20868 | 112.85168 | 38070 ft | 429 kts | 268° |
| 2026-05-04 04:15 | 22.20759 | 112.78736 | 38072 ft | 429 kts | 268° |
| 2026-05-04 04:15 | 22.20665 | 112.72291 | 38069 ft | 430 kts | 268° |
| 2026-05-04 04:16 | 22.20581 | 112.65842 | 38066 ft | 430 kts | 268° |
| 2026-05-04 04:16 | 22.20499 | 112.59385 | 38067 ft | 430 kts | 268° |
| 2026-05-04 04:17 | 22.20417 | 112.52933 | 38072 ft | 430 kts | 268° |
| 2026-05-04 04:17 | 22.20336 | 112.46478 | 38071 ft | 430 kts | 268° |
| 2026-05-04 04:18 | 22.20258 | 112.40024 | 38073 ft | 431 kts | 268° |
| 2026-05-04 04:18 | 22.20181 | 112.33557 | 38072 ft | 431 kts | 268° |
| 2026-05-04 04:19 | 22.20104 | 112.27084 | 38074 ft | 431 kts | 268° |
| 2026-05-04 04:19 | 22.20044 | 112.20653 | 38073 ft | 431 kts | 268° |
| 2026-05-04 04:20 | 22.19976 | 112.14178 | 38073 ft | 431 kts | 268° |
| 2026-05-04 04:20 | 22.19902 | 112.07703 | 38074 ft | 430 kts | 268° |
| 2026-05-04 04:21 | 22.19831 | 112.01253 | 38080 ft | 430 kts | 268° |
| 2026-05-04 04:21 | 22.19760 | 111.94795 | 38061 ft | 430 kts | 268° |
| 2026-05-04 04:22 | 22.19689 | 111.88307 | 38072 ft | 434 kts | 268° |
| 2026-05-04 04:22 | 22.19620 | 111.81789 | 38069 ft | 434 kts | 268° |
| 2026-05-04 04:23 | 22.19539 | 111.75324 | 38074 ft | 433 kts | 268° |
| 2026-05-04 04:23 | 22.19449 | 111.68835 | 38075 ft | 432 kts | 268° |
| 2026-05-04 04:24 | 22.19359 | 111.62359 | 38066 ft | 431 kts | 268° |
| 2026-05-04 04:24 | 22.19264 | 111.55889 | 38073 ft | 431 kts | 268° |
| 2026-05-04 04:25 | 22.19171 | 111.49400 | 38079 ft | 432 kts | 268° |
| 2026-05-04 04:25 | 22.19080 | 111.42968 | 38078 ft | 431 kts | 268° |
| 2026-05-04 04:26 | 22.18989 | 111.36486 | 38079 ft | 431 kts | 268° |
| 2026-05-04 04:26 | 22.18903 | 111.30009 | 38079 ft | 431 kts | 268° |
| 2026-05-04 04:27 | 22.18820 | 111.23539 | 38082 ft | 432 kts | 268° |
| 2026-05-04 04:27 | 22.18738 | 111.17058 | 38081 ft | 432 kts | 268° |
| 2026-05-04 04:28 | 22.18664 | 111.10583 | 38071 ft | 431 kts | 268° |
| 2026-05-04 04:28 | 22.18610 | 111.04112 | 38071 ft | 430 kts | 268° |
| 2026-05-04 04:29 | 22.18553 | 110.97693 | 38068 ft | 431 kts | 268° |
| 2026-05-04 04:29 | 22.18497 | 110.91222 | 38066 ft | 431 kts | 268° |
| 2026-05-04 04:30 | 22.18442 | 110.84753 | 38067 ft | 431 kts | 268° |
| 2026-05-04 04:30 | 22.18388 | 110.78279 | 38066 ft | 431 kts | 268° |
| 2026-05-04 04:31 | 22.18340 | 110.71797 | 38067 ft | 432 kts | 268° |
| 2026-05-04 04:31 | 22.18293 | 110.65314 | 38067 ft | 432 kts | 268° |
| 2026-05-04 04:32 | 22.18248 | 110.58866 | 38070 ft | 432 kts | 268° |
| 2026-05-04 04:32 | 22.18201 | 110.52375 | 38071 ft | 432 kts | 268° |
| 2026-05-04 04:33 | 22.18156 | 110.45880 | 38072 ft | 432 kts | 268° |
| 2026-05-04 04:33 | 22.18123 | 110.39390 | 38070 ft | 432 kts | 268° |
| 2026-05-04 04:34 | 22.18087 | 110.32892 | 38074 ft | 433 kts | 268° |
| 2026-05-04 04:34 | 22.18049 | 110.26398 | 38068 ft | 432 kts | 268° |
| 2026-05-04 04:35 | 22.18014 | 110.19947 | 38075 ft | 432 kts | 268° |
| 2026-05-04 04:35 | 22.17978 | 110.13459 | 38074 ft | 432 kts | 268° |
| 2026-05-04 04:36 | 22.17937 | 110.06965 | 38073 ft | 433 kts | 268° |
| 2026-05-04 04:36 | 22.17894 | 110.00462 | 38077 ft | 433 kts | 268° |
| 2026-05-04 04:37 | 22.17822 | 109.87460 | 38078 ft | 433 kts | 268° |
| 2026-05-04 04:38 | 22.17788 | 109.81009 | 38068 ft | 433 kts | 269° |
| 2026-05-04 04:38 | 22.17758 | 109.74479 | 38076 ft | 436 kts | 269° |
| 2026-05-04 04:39 | 22.17725 | 109.67929 | 38084 ft | 438 kts | 269° |
| 2026-05-04 04:39 | 22.17693 | 109.61367 | 38081 ft | 437 kts | 269° |
| 2026-05-04 04:40 | 22.17662 | 109.54814 | 38083 ft | 436 kts | 269° |
| 2026-05-04 04:40 | 22.17631 | 109.48265 | 38086 ft | 436 kts | 269° |
| 2026-05-04 04:41 | 22.17592 | 109.41757 | 38088 ft | 436 kts | 269° |
| 2026-05-04 04:41 | 22.17537 | 109.35176 | 38085 ft | 435 kts | 268° |
| 2026-05-04 04:42 | 22.17493 | 109.29753 | 38089 ft | 435 kts | 269° |
| 2026-05-04 04:42 | 22.17445 | 109.22159 | 38087 ft | 436 kts | 269° |
| 2026-05-04 04:43 | 22.17402 | 109.15619 | 38086 ft | 436 kts | 269° |
| 2026-05-04 04:43 | 22.17367 | 109.10139 | 38089 ft | 435 kts | 269° |
| 2026-05-04 04:44 | 22.17327 | 109.03614 | 38085 ft | 434 kts | 269° |
| 2026-05-04 04:44 | 22.17288 | 108.97140 | 38090 ft | 434 kts | 269° |
| 2026-05-04 04:45 | 22.17250 | 108.90616 | 38091 ft | 434 kts | 269° |
| 2026-05-04 04:47 | 22.17126 | 108.67803 | 38097 ft | 435 kts | 269° |
| 2026-05-04 04:47 | 22.17092 | 108.61313 | 38098 ft | 435 kts | 269° |
| 2026-05-04 04:48 | 22.17059 | 108.54781 | 38094 ft | 435 kts | 269° |
| 2026-05-04 04:49 | 22.16979 | 108.38430 | 38100 ft | 436 kts | 269° |
| 2026-05-04 04:49 | 22.16931 | 108.31915 | 38099 ft | 437 kts | 269° |
| 2026-05-04 04:50 | 22.16878 | 108.25359 | 38101 ft | 437 kts | 269° |
| 2026-05-04 04:50 | 22.16827 | 108.18801 | 38100 ft | 437 kts | 269° |
| 2026-05-04 04:51 | 22.16775 | 108.12242 | 38102 ft | 437 kts | 269° |
| 2026-05-04 04:51 | 22.16722 | 108.05681 | 38101 ft | 437 kts | 269° |